createdAt,value
2022-10-06T00:00:10.233Z,4.18
2022-10-06T00:02:38.725Z,4.57
2022-10-06T00:05:07.169Z,4.22
2022-10-06T00:07:36.706Z,4.40
2022-10-06T00:10:05.759Z,5.03
2022-10-06T00:12:40.694Z,3.65
2022-10-06T00:15:13.416Z,3.85
2022-10-06T00:17:43.335Z,3.83
2022-10-06T00:20:12.596Z,4.25
2022-10-06T00:22:43.638Z,4.43
2022-10-06T00:25:16.038Z,4.00
2022-10-06T00:27:47.308Z,3.28
2022-10-06T00:30:19.323Z,4.32
2022-10-06T00:32:53.294Z,2.97
2022-10-06T00:35:21.918Z,4.45
2022-10-06T00:37:50.972Z,3.38
2022-10-06T00:40:20.436Z,3.70
2022-10-06T00:42:54.965Z,3.40
2022-10-06T00:45:31.314Z,3.38
2022-10-06T00:48:03.802Z,3.75
2022-10-06T00:50:33.097Z,3.50
2022-10-06T00:53:01.670Z,3.50
2022-10-06T00:55:31.679Z,4.10
2022-10-06T00:58:01.609Z,3.80
2022-10-06T01:00:31.375Z,3.60
2022-10-06T01:03:05.821Z,3.78
2022-10-06T01:05:41.016Z,3.83
2022-10-06T01:08:10.814Z,4.20
2022-10-06T01:10:39.800Z,4.03
2022-10-06T01:13:10.677Z,3.70
2022-10-06T01:15:46.122Z,3.80
2022-10-06T01:18:18.735Z,4.15
2022-10-06T01:20:51.963Z,4.10
2022-10-06T01:23:22.592Z,4.00
2022-10-06T01:25:51.354Z,4.15
2022-10-06T01:28:21.084Z,4.03
2022-10-06T01:30:53.464Z,3.90
2022-10-06T01:33:23.521Z,4.07
2022-10-06T01:35:53.926Z,3.80
2022-10-06T01:38:24.429Z,4.07
2022-10-06T01:40:54.610Z,3.63
2022-10-06T01:43:23.476Z,5.40
2022-10-06T01:45:56.922Z,3.70
2022-10-06T01:48:26.536Z,3.75
2022-10-06T01:50:55.474Z,4.72
2022-10-06T01:53:25.501Z,4.22
2022-10-06T01:55:58.463Z,3.97
2022-10-06T01:58:27.177Z,4.00
2022-10-06T02:00:55.946Z,3.95
2022-10-06T02:03:24.560Z,4.25
2022-10-06T02:05:53.058Z,3.92
2022-10-06T02:08:21.473Z,3.85
2022-10-06T02:10:51.758Z,4.10
2022-10-06T02:13:24.787Z,4.10
2022-10-06T02:15:57.364Z,3.30
2022-10-06T02:18:26.629Z,3.67
2022-10-06T02:20:55.748Z,3.38
2022-10-06T02:23:24.004Z,3.80
2022-10-06T02:26:00.313Z,4.07
2022-10-06T02:28:29.471Z,3.60
2022-10-06T02:31:02.717Z,3.65
2022-10-06T02:33:31.289Z,4.10
2022-10-06T02:36:00.041Z,3.90
2022-10-06T02:38:29.111Z,3.78
2022-10-06T02:40:59.467Z,3.83
2022-10-06T02:43:29.027Z,3.85
2022-10-06T02:45:58.143Z,3.30
2022-10-06T02:48:27.718Z,3.83
2022-10-06T02:51:00.582Z,3.40
2022-10-06T02:53:29.932Z,3.92
2022-10-06T02:56:04.244Z,3.35
2022-10-06T02:58:33.603Z,3.65
2022-10-06T03:01:08.238Z,3.90
2022-10-06T03:03:37.134Z,3.65
2022-10-06T03:06:21.868Z,3.88
2022-10-06T03:08:51.297Z,3.80
2022-10-06T03:11:22.382Z,3.67
2022-10-06T03:13:52.083Z,3.13
2022-10-06T03:16:22.960Z,3.55
2022-10-06T03:18:52.864Z,3.25
2022-10-06T03:21:23.296Z,3.78
2022-10-06T03:23:53.794Z,3.38
2022-10-06T03:26:28.087Z,3.72
2022-10-06T03:28:56.574Z,3.50
2022-10-06T03:31:25.641Z,4.00
2022-10-06T03:33:54.578Z,3.10
2022-10-06T03:36:24.998Z,3.60
2022-10-06T03:38:53.693Z,3.90
2022-10-06T03:41:26.739Z,3.53
2022-10-06T03:43:59.055Z,3.58
2022-10-06T03:46:29.723Z,3.70
2022-10-06T03:49:00.014Z,3.13
2022-10-06T03:51:31.414Z,3.70
2022-10-06T03:54:01.491Z,4.00
2022-10-06T03:56:33.580Z,3.85
2022-10-06T03:59:03.748Z,4.13
2022-10-06T04:01:34.397Z,3.60
2022-10-06T04:04:06.714Z,3.97
2022-10-06T04:06:37.331Z,3.10
2022-10-06T04:09:08.489Z,3.65
2022-10-06T04:14:19.983Z,3.40
2022-10-06T04:16:50.218Z,3.88
2022-10-06T04:19:19.862Z,3.53
2022-10-06T04:21:49.980Z,3.70
2022-10-06T04:24:19.443Z,4.78
2022-10-06T04:26:50.385Z,3.83
2022-10-06T04:29:18.971Z,3.63
2022-10-06T04:31:47.564Z,3.42
2022-10-06T04:34:15.932Z,3.70
2022-10-06T04:36:44.994Z,3.53
2022-10-06T04:39:14.718Z,3.70
2022-10-06T04:41:47.576Z,3.50
2022-10-06T04:44:17.419Z,3.97
2022-10-06T04:46:46.619Z,4.35
2022-10-06T04:49:20.032Z,3.90
2022-10-06T04:51:49.794Z,3.65
2022-10-06T04:54:19.459Z,3.80
2022-10-06T04:56:48.617Z,3.90
2022-10-06T04:59:18.811Z,4.28
2022-10-06T05:01:47.715Z,3.88
2022-10-06T05:04:16.329Z,3.38
2022-10-06T05:06:44.631Z,4.15
2022-10-06T05:09:15.981Z,4.40
2022-10-06T05:11:44.431Z,4.20
2022-10-06T05:14:13.323Z,3.65
2022-10-06T05:16:43.512Z,4.10
2022-10-06T05:19:11.928Z,4.18
2022-10-06T05:21:40.669Z,4.57
2022-10-06T05:24:11.406Z,4.57
2022-10-06T05:26:40.244Z,3.97
2022-10-06T05:29:08.946Z,4.15
2022-10-06T05:31:41.488Z,4.55
2022-10-06T05:34:11.784Z,4.40
2022-10-06T05:36:40.344Z,4.45
2022-10-06T05:39:09.321Z,5.10
2022-10-06T05:41:38.420Z,4.72
2022-10-06T05:44:08.863Z,4.50
2022-10-06T05:46:38.537Z,4.13
2022-10-06T05:49:10.530Z,4.45
2022-10-06T05:51:41.167Z,4.50
2022-10-06T05:54:09.886Z,4.28
2022-10-06T05:56:40.386Z,4.47
2022-10-06T05:59:09.246Z,4.00
2022-10-06T06:01:41.721Z,4.43
2022-10-06T06:04:11.709Z,4.65
2022-10-06T06:06:42.926Z,4.93
2022-10-06T06:09:13.388Z,4.55
2022-10-06T06:11:43.642Z,4.50
2022-10-06T06:14:15.103Z,4.07
2022-10-06T06:16:43.889Z,4.45
2022-10-06T06:19:14.561Z,4.35
2022-10-06T06:21:44.515Z,4.00
2022-10-06T06:24:12.994Z,4.88
2022-10-06T06:26:42.181Z,4.82
2022-10-06T06:29:10.665Z,4.32
2022-10-06T06:31:40.623Z,3.97
2022-10-06T06:34:09.475Z,3.65
2022-10-06T06:36:41.755Z,4.55
2022-10-06T06:39:14.376Z,4.38
2022-10-06T06:41:45.457Z,3.95
2022-10-06T06:44:15.867Z,4.13
2022-10-06T06:46:48.796Z,3.85
2022-10-06T06:49:38.887Z,3.50
2022-10-06T06:52:08.783Z,4.40
2022-10-06T06:54:41.226Z,3.83
2022-10-06T06:57:10.263Z,4.40
2022-10-06T06:59:39.138Z,4.18
2022-10-06T07:02:07.684Z,4.88
2022-10-06T07:04:37.828Z,5.13
2022-10-06T07:07:07.270Z,5.55
2022-10-06T07:09:35.572Z,5.28
2022-10-06T07:12:05.639Z,6.22
2022-10-06T07:14:34.332Z,5.93
2022-10-06T07:17:19.925Z,5.05
2022-10-06T07:20:05.555Z,5.22
2022-10-06T07:22:52.539Z,4.80
2022-10-06T07:25:26.267Z,4.80
2022-10-06T07:30:29.763Z,5.05
2022-10-06T07:32:59.116Z,4.20
2022-10-06T07:35:27.784Z,4.72
2022-10-06T07:37:58.400Z,4.75
2022-10-06T07:40:27.136Z,4.60
2022-10-06T07:42:57.532Z,5.22
2022-10-06T07:45:41.764Z,4.75
2022-10-06T07:50:44.079Z,5.50
2022-10-06T07:53:12.857Z,6.60
2022-10-06T07:55:44.754Z,3.40
2022-10-06T07:58:16.211Z,3.53
2022-10-06T08:00:45.977Z,2.40
2022-10-06T08:03:18.284Z,2.30
2022-10-06T08:05:47.311Z,2.65
2022-10-06T08:08:18.713Z,3.00
2022-10-06T08:10:54.265Z,5.30
2022-10-06T08:13:24.792Z,3.70
2022-10-06T08:15:56.696Z,2.83
2022-10-06T08:18:48.766Z,2.20
2022-10-06T08:21:16.018Z,2.70
2022-10-06T08:23:46.061Z,1.67
2022-10-06T08:26:16.192Z,1.90
2022-10-06T08:28:58.034Z,1.52
2022-10-06T08:31:27.140Z,1.33
2022-10-06T08:33:57.472Z,1.60
2022-10-06T08:36:32.051Z,1.10
2022-10-06T08:39:01.103Z,0.80
2022-10-06T08:41:40.274Z,1.00
2022-10-06T08:44:21.382Z,1.45
2022-10-06T08:47:00.653Z,1.20
2022-10-06T08:49:39.111Z,1.20
2022-10-06T08:52:28.022Z,1.20
2022-10-06T08:55:04.922Z,2.33
2022-10-06T08:57:40.403Z,1.20
2022-10-06T09:00:18.160Z,1.20
2022-10-06T09:02:51.587Z,1.02
2022-10-06T09:05:25.873Z,1.42
2022-10-06T09:08:20.998Z,1.40
2022-10-06T09:11:02.428Z,0.90
2022-10-06T09:13:34.241Z,1.85
2022-10-06T09:16:08.714Z,1.80
2022-10-06T09:19:07.323Z,1.90
2022-10-06T09:21:37.261Z,1.83
2022-10-06T09:24:12.664Z,2.08
2022-10-06T09:26:44.560Z,1.63
2022-10-06T09:29:13.494Z,1.60
2022-10-06T09:31:49.606Z,1.90
2022-10-06T09:34:27.021Z,1.65
2022-10-06T09:37:02.177Z,1.65
2022-10-06T09:39:36.804Z,1.92
2022-10-06T09:42:12.705Z,1.20
2022-10-06T09:44:51.730Z,1.23
2022-10-06T09:47:37.403Z,1.08
2022-10-06T09:50:16.578Z,1.40
2022-10-06T09:53:03.910Z,1.10
2022-10-06T09:55:37.053Z,1.20
2022-10-06T09:58:16.982Z,1.30
2022-10-06T10:00:50.425Z,1.20
2022-10-06T10:03:20.601Z,0.95
2022-10-06T10:05:51.345Z,1.05
2022-10-06T10:08:23.371Z,1.30
2022-10-06T10:10:52.711Z,1.33
2022-10-06T10:13:24.180Z,1.00
2022-10-06T10:15:55.603Z,1.27
2022-10-06T10:18:28.942Z,2.05
2022-10-06T10:21:00.286Z,1.13
2022-10-06T10:23:32.254Z,1.10
2022-10-06T10:26:27.250Z,0.90
2022-10-06T10:29:08.194Z,1.88
2022-10-06T10:31:49.303Z,1.17
2022-10-06T10:34:43.816Z,1.23
2022-10-06T10:37:16.598Z,0.95
2022-10-06T10:40:01.797Z,1.00
2022-10-06T10:42:37.394Z,1.13
2022-10-06T10:45:13.398Z,1.30
2022-10-06T10:47:46.360Z,0.75
2022-10-06T10:50:25.931Z,1.20
2022-10-06T10:52:59.937Z,0.90
2022-10-06T10:58:02.953Z,0.90
2022-10-06T11:00:35.521Z,0.88
2022-10-06T11:03:04.114Z,0.90
2022-10-06T11:05:50.963Z,1.80
2022-10-06T11:08:28.986Z,0.80
2022-10-06T11:11:00.064Z,0.88
2022-10-06T11:13:35.415Z,1.17
2022-10-06T11:16:26.889Z,1.20
2022-10-06T11:19:09.284Z,0.90
2022-10-06T11:21:48.097Z,1.05
2022-10-06T11:24:20.643Z,1.30
2022-10-06T11:27:08.074Z,1.40
2022-10-06T11:29:47.209Z,1.42
2022-10-06T11:32:26.811Z,1.00
2022-10-06T11:34:55.704Z,1.10
2022-10-06T11:37:37.393Z,1.10
2022-10-06T11:40:26.824Z,1.10
2022-10-06T11:43:02.084Z,1.15
2022-10-06T11:45:39.023Z,1.27
2022-10-06T11:48:24.795Z,0.63
2022-10-06T11:50:55.715Z,1.38
2022-10-06T11:53:43.312Z,1.15
2022-10-06T11:56:45.157Z,1.98
2022-10-06T11:59:26.687Z,1.40
2022-10-06T12:01:57.773Z,1.15
2022-10-06T12:04:27.932Z,1.10
2022-10-06T12:07:01.614Z,0.90
2022-10-06T12:09:46.298Z,0.93
2022-10-06T12:12:47.724Z,1.65
2022-10-06T12:18:59.381Z,0.90
2022-10-06T12:21:37.320Z,1.02
2022-10-06T12:24:19.634Z,0.88
2022-10-06T12:26:58.623Z,1.10
2022-10-06T12:29:40.713Z,1.15
2022-10-06T12:32:34.670Z,1.20
2022-10-06T12:35:13.614Z,0.90
2022-10-06T12:37:44.669Z,1.00
2022-10-06T12:40:44.334Z,0.88
2022-10-06T12:43:35.643Z,1.27
2022-10-06T12:46:08.444Z,0.80
2022-10-06T12:48:43.105Z,1.23
2022-10-06T12:51:23.760Z,1.02
2022-10-06T12:54:00.185Z,0.88
2022-10-06T12:56:31.555Z,0.90
2022-10-06T12:59:20.467Z,1.00
2022-10-06T13:01:50.989Z,0.80
2022-10-06T13:04:36.192Z,1.00
2022-10-06T13:07:15.336Z,1.38
2022-10-06T13:09:44.939Z,0.80
2022-10-06T13:12:32.064Z,0.80
2022-10-06T13:15:20.063Z,1.55
2022-10-06T13:17:51.581Z,1.08
2022-10-06T13:20:23.300Z,0.90
2022-10-06T13:23:02.979Z,2.10
2022-10-06T13:25:37.262Z,1.02
2022-10-06T13:28:06.407Z,0.95
2022-10-06T13:30:38.711Z,1.15
2022-10-06T13:33:10.405Z,0.93
2022-10-06T13:35:39.733Z,1.25
2022-10-06T13:38:08.165Z,1.20
2022-10-06T13:40:44.591Z,1.05
2022-10-06T13:43:18.799Z,1.35
2022-10-06T13:45:49.637Z,1.33
2022-10-06T13:48:23.845Z,1.30
2022-10-06T13:50:53.198Z,1.80
2022-10-06T13:53:27.646Z,1.20
2022-10-06T13:55:56.504Z,0.88
2022-10-06T13:58:29.125Z,1.00
2022-10-06T14:01:02.158Z,1.10
2022-10-06T14:06:16.402Z,1.05
2022-10-06T14:08:50.910Z,1.10
2022-10-06T14:11:25.659Z,1.17
2022-10-06T14:13:57.962Z,1.10
2022-10-06T14:16:29.554Z,0.82
2022-10-06T14:19:00.450Z,1.23
2022-10-06T14:21:35.752Z,0.68
2022-10-06T14:24:09.286Z,1.25
2022-10-06T14:26:38.638Z,0.93
2022-10-06T14:29:06.814Z,0.88
2022-10-06T14:31:36.336Z,1.00
2022-10-06T14:34:05.809Z,1.27
2022-10-06T14:36:37.368Z,1.40
2022-10-06T14:39:07.932Z,0.82
2022-10-06T14:41:36.477Z,1.13
2022-10-06T14:44:08.682Z,0.80
2022-10-06T14:46:39.560Z,0.80
2022-10-06T14:49:08.765Z,1.13
2022-10-06T14:51:38.197Z,0.77
2022-10-06T14:54:07.791Z,0.85
2022-10-06T14:56:37.934Z,0.80
2022-10-06T14:59:08.226Z,0.80
2022-10-06T15:01:41.255Z,0.75
2022-10-06T15:04:12.075Z,0.98
2022-10-06T15:06:58.495Z,1.02
2022-10-06T15:09:29.704Z,0.90
2022-10-06T15:11:59.795Z,1.02
2022-10-06T15:14:28.568Z,0.90
2022-10-06T15:17:00.471Z,0.90
2022-10-06T15:19:28.836Z,1.10
2022-10-06T15:21:57.117Z,1.20
2022-10-06T15:24:25.557Z,2.00
2022-10-06T15:27:11.138Z,1.15
2022-10-06T15:29:39.562Z,1.33
2022-10-06T15:32:09.649Z,1.58
2022-10-06T15:34:38.370Z,1.17
2022-10-06T15:37:07.554Z,0.80
2022-10-06T15:39:38.379Z,1.13
2022-10-06T15:42:08.298Z,1.27
2022-10-06T15:44:36.924Z,1.08
2022-10-06T15:47:06.716Z,0.80
2022-10-06T15:49:40.602Z,1.23
2022-10-06T15:52:11.413Z,0.95
2022-10-06T15:54:41.779Z,1.10
2022-10-06T15:57:16.390Z,1.17
2022-10-06T15:59:48.258Z,1.10
2022-10-06T16:02:20.379Z,1.00
2022-10-06T16:05:17.775Z,0.80
2022-10-06T16:07:45.915Z,0.88
2022-10-06T16:10:14.103Z,1.67
2022-10-06T16:12:42.605Z,1.33
2022-10-06T16:15:11.537Z,1.30
2022-10-06T16:17:39.713Z,1.30
2022-10-06T16:20:11.616Z,1.88
2022-10-06T16:22:40.261Z,1.67
2022-10-06T16:25:09.765Z,2.15
2022-10-06T16:27:39.552Z,1.88
2022-10-06T16:30:09.780Z,4.50
2022-10-06T16:32:38.346Z,4.15
2022-10-06T16:35:07.708Z,3.72
2022-10-06T16:37:37.590Z,2.08
2022-10-06T16:40:06.510Z,2.33
2022-10-06T16:42:34.964Z,2.00
2022-10-06T16:45:03.276Z,1.55
2022-10-06T16:47:31.463Z,2.30
2022-10-06T16:49:59.652Z,2.30
2022-10-06T16:52:27.925Z,1.95
2022-10-06T16:55:02.781Z,2.20
2022-10-06T16:57:31.323Z,1.80
2022-10-06T17:00:00.518Z,2.47
2022-10-06T17:02:28.733Z,2.50
2022-10-06T17:04:57.117Z,3.30
2022-10-06T17:07:25.770Z,4.65
2022-10-06T17:10:15.687Z,6.18
2022-10-06T17:12:44.204Z,10.35
2022-10-06T17:15:16.438Z,14.48
2022-10-06T17:17:48.865Z,11.90
2022-10-06T17:20:20.596Z,5.45
2022-10-06T17:22:50.510Z,5.20
2022-10-06T17:25:18.707Z,4.90
2022-10-06T17:27:48.674Z,5.55
2022-10-06T17:30:18.909Z,3.70
2022-10-06T17:32:47.505Z,3.80
2022-10-06T17:35:16.009Z,3.22
2022-10-06T17:37:45.050Z,3.72
2022-10-06T17:40:13.610Z,4.43
2022-10-06T17:42:54.114Z,3.90
2022-10-06T17:45:25.703Z,5.88
2022-10-06T17:47:59.133Z,8.57
2022-10-06T17:50:34.803Z,5.57
2022-10-06T17:53:04.312Z,3.97
2022-10-06T17:55:32.926Z,6.43
2022-10-06T17:58:04.221Z,5.80
2022-10-06T18:00:33.789Z,4.88
2022-10-06T18:03:02.065Z,4.55
2022-10-06T18:05:33.145Z,4.93
2022-10-06T18:08:01.900Z,3.28
2022-10-06T18:10:48.114Z,3.10
2022-10-06T18:13:18.219Z,4.47
2022-10-06T18:15:46.797Z,5.60
2022-10-06T18:18:15.003Z,5.82
2022-10-06T18:20:43.881Z,3.13
2022-10-06T18:23:12.491Z,4.07
2022-10-06T18:25:41.560Z,3.60
2022-10-06T18:28:12.340Z,6.18
2022-10-06T18:30:42.175Z,5.53
2022-10-06T18:36:16.150Z,5.93
2022-10-06T18:38:47.637Z,4.07
2022-10-06T18:41:19.881Z,3.85
2022-10-06T18:43:48.509Z,8.95
2022-10-06T18:46:39.148Z,5.38
2022-10-06T18:49:10.705Z,5.30
2022-10-06T18:51:41.763Z,3.45
2022-10-06T18:54:12.344Z,4.30
2022-10-06T18:56:41.144Z,3.30
2022-10-06T18:59:13.473Z,4.63
2022-10-06T19:01:45.583Z,4.80
2022-10-06T19:04:16.343Z,4.85
2022-10-06T19:06:50.010Z,4.18
2022-10-06T19:09:20.170Z,4.53
2022-10-06T19:11:52.452Z,4.85
2022-10-06T19:14:22.662Z,3.63
2022-10-06T19:16:56.512Z,4.38
2022-10-06T19:19:26.668Z,5.90
2022-10-06T19:21:59.853Z,3.83
2022-10-06T19:24:31.208Z,3.80
2022-10-06T19:27:00.133Z,3.58
2022-10-06T19:29:30.319Z,4.00
2022-10-06T19:32:00.615Z,3.67
2022-10-06T19:34:29.141Z,3.58
2022-10-06T19:36:58.394Z,3.90
2022-10-06T19:39:30.471Z,3.97
2022-10-06T19:42:17.250Z,4.97
2022-10-06T19:44:46.255Z,5.53
2022-10-06T19:47:17.821Z,4.60
2022-10-06T19:49:46.381Z,5.43
2022-10-06T19:52:17.256Z,5.80
2022-10-06T19:54:49.996Z,5.03
2022-10-06T19:57:20.193Z,4.15
2022-10-06T19:59:53.227Z,4.05
2022-10-06T20:02:24.039Z,4.45
2022-10-06T20:04:53.859Z,4.15
2022-10-06T20:07:25.551Z,4.45
2022-10-06T20:09:53.992Z,4.53
2022-10-06T20:12:25.320Z,7.55
2022-10-06T20:14:54.139Z,5.75
2022-10-06T20:17:24.002Z,6.05
2022-10-06T20:19:57.317Z,8.40
2022-10-06T20:22:26.534Z,9.88
2022-10-06T20:24:55.142Z,7.43
2022-10-06T20:27:23.277Z,6.50
2022-10-06T20:29:51.838Z,5.07
2022-10-06T20:32:20.092Z,5.70
2022-10-06T20:34:50.159Z,5.55
2022-10-06T20:37:32.606Z,6.07
2022-10-06T20:40:26.738Z,6.35
2022-10-06T20:43:00.950Z,6.78
2022-10-06T20:45:29.925Z,8.85
2022-10-06T20:48:00.443Z,7.78
2022-10-06T20:50:32.141Z,6.55
2022-10-06T20:53:01.340Z,7.18
2022-10-06T20:55:29.986Z,8.07
2022-10-06T20:58:01.489Z,5.47
2022-10-06T21:00:30.429Z,5.32
2022-10-06T21:02:58.844Z,6.10
2022-10-06T21:05:33.180Z,6.95
2022-10-06T21:08:03.004Z,5.78
2022-10-06T21:10:31.274Z,5.30
2022-10-06T21:12:59.526Z,5.53
2022-10-06T21:15:27.979Z,5.30
2022-10-06T21:17:56.272Z,5.10
2022-10-06T21:20:24.774Z,5.25
2022-10-06T21:22:53.776Z,5.00
2022-10-06T21:25:23.518Z,4.90
2022-10-06T21:27:52.567Z,5.43
2022-10-06T21:30:20.767Z,5.78
2022-10-06T21:32:49.465Z,5.45
2022-10-06T21:35:17.750Z,5.45
2022-10-06T21:37:46.674Z,5.25
2022-10-06T21:40:15.414Z,6.10
2022-10-06T21:42:45.112Z,7.13
2022-10-06T21:45:13.105Z,5.82
2022-10-06T21:47:41.792Z,6.57
2022-10-06T21:50:10.908Z,6.25
2022-10-06T21:52:39.476Z,7.10
2022-10-06T21:55:08.868Z,9.02
2022-10-06T21:57:37.383Z,7.55
2022-10-06T22:00:11.156Z,5.68
2022-10-06T22:02:39.610Z,5.93
2022-10-06T22:05:08.535Z,6.90
2022-10-06T22:07:36.953Z,7.57
2022-10-06T22:10:06.111Z,7.28
2022-10-06T22:12:34.334Z,7.93
2022-10-06T22:15:02.716Z,7.22
2022-10-06T22:17:32.505Z,7.15
2022-10-06T22:20:01.029Z,7.70
2022-10-06T22:22:29.135Z,6.97
2022-10-06T22:24:57.380Z,7.88
2022-10-06T22:27:25.747Z,7.75
2022-10-06T22:29:53.955Z,7.22
2022-10-06T22:32:23.449Z,8.20
2022-10-06T22:34:53.935Z,7.63
2022-10-06T22:37:22.033Z,7.28
2022-10-06T22:39:50.270Z,7.22
2022-10-06T22:42:18.412Z,6.97
2022-10-06T22:44:46.593Z,6.90
2022-10-06T22:47:14.990Z,6.00
2022-10-06T22:49:43.260Z,7.32
2022-10-06T22:52:13.077Z,6.35
2022-10-06T22:54:41.365Z,5.85
2022-10-06T22:57:09.608Z,5.55
2022-10-06T22:59:40.270Z,6.68
2022-10-06T23:02:08.449Z,5.72
2022-10-06T23:04:37.139Z,5.78
2022-10-06T23:07:05.211Z,6.28
2022-10-06T23:09:35.321Z,5.15
2022-10-06T23:12:03.518Z,5.10
2022-10-06T23:14:31.647Z,5.78
2022-10-06T23:16:59.851Z,5.22
2022-10-06T23:19:27.925Z,5.30
2022-10-06T23:21:56.004Z,4.97
2022-10-06T23:24:24.044Z,5.13
2022-10-06T23:26:53.717Z,4.38
2022-10-06T23:29:23.389Z,4.55
2022-10-06T23:31:52.207Z,3.63
2022-10-06T23:34:20.407Z,3.92
2022-10-06T23:36:48.680Z,4.28
2022-10-06T23:39:16.977Z,3.97
2022-10-06T23:41:44.960Z,4.50
2022-10-06T23:44:14.458Z,4.25
2022-10-06T23:46:42.935Z,4.85
2022-10-06T23:49:11.117Z,5.55
2022-10-06T23:51:40.495Z,4.20
2022-10-06T23:54:08.680Z,4.93
2022-10-06T23:56:36.783Z,4.28
2022-10-06T23:59:05.360Z,4.75
